createdAt,value
2023-03-31T00:02:13.261Z,55.10
2023-03-31T00:04:45.933Z,55.10
2023-03-31T00:07:14.448Z,55.70
2023-03-31T00:09:45.930Z,55.10
2023-03-31T00:12:17.487Z,55.10
2023-03-31T00:14:44.369Z,55.10
2023-03-31T00:17:11.330Z,55.10
2023-03-31T00:19:40.049Z,55.00
2023-03-31T00:22:06.852Z,55.00
2023-03-31T00:24:34.511Z,55.00
2023-03-31T00:27:05.320Z,55.00
2023-03-31T00:29:33.544Z,55.60
2023-03-31T00:32:00.388Z,54.90
2023-03-31T00:34:27.854Z,54.90
2023-03-31T00:36:56.519Z,54.90
2023-03-31T00:39:24.644Z,54.80
2023-03-31T00:41:51.812Z,55.00
2023-03-31T00:44:25.343Z,55.10
2023-03-31T00:46:56.946Z,54.90
2023-03-31T00:49:30.253Z,55.40
2023-03-31T00:52:23.345Z,54.80
2023-03-31T00:54:55.372Z,54.70
2023-03-31T00:57:23.897Z,54.80
2023-03-31T00:59:56.718Z,54.80
2023-03-31T01:02:27.524Z,54.80
2023-03-31T01:05:02.017Z,54.80
2023-03-31T01:07:39.267Z,54.90
2023-03-31T01:10:06.521Z,54.80
2023-03-31T01:12:36.773Z,54.80
2023-03-31T01:15:04.970Z,54.30
2023-03-31T01:17:32.241Z,54.80
2023-03-31T01:19:58.904Z,54.80
2023-03-31T01:22:52.967Z,54.80
2023-03-31T01:25:38.757Z,54.80
2023-03-31T01:28:05.843Z,54.80
2023-03-31T01:30:52.765Z,54.80
2023-03-31T01:33:52.439Z,54.70
2023-03-31T01:36:46.688Z,54.30
2023-03-31T01:39:34.016Z,54.70
2023-03-31T01:42:03.967Z,54.80
2023-03-31T01:44:46.068Z,54.80
2023-03-31T01:47:40.682Z,54.80
2023-03-31T01:50:25.299Z,54.80
2023-03-31T01:52:55.996Z,54.70
2023-03-31T01:55:39.418Z,54.20
2023-03-31T01:58:28.862Z,54.70
2023-03-31T02:01:03.543Z,54.80
2023-03-31T02:03:37.097Z,54.70
2023-03-31T02:06:12.382Z,54.70
2023-03-31T02:08:45.234Z,54.70
2023-03-31T02:11:13.179Z,54.70
2023-03-31T02:13:44.417Z,54.70
2023-03-31T02:16:18.820Z,54.20
2023-03-31T02:18:48.185Z,54.70
2023-03-31T02:21:16.388Z,54.70
2023-03-31T02:23:45.302Z,54.70
2023-03-31T02:26:20.588Z,54.60
2023-03-31T02:28:47.230Z,54.00
2023-03-31T02:31:38.396Z,54.50
2023-03-31T02:34:05.780Z,54.70
2023-03-31T02:36:33.866Z,54.60
2023-03-31T02:39:10.576Z,54.70
2023-03-31T02:41:38.171Z,54.60
2023-03-31T02:44:04.874Z,54.70
2023-03-31T02:46:32.294Z,54.20
2023-03-31T02:49:02.702Z,54.70
2023-03-31T02:51:39.064Z,54.70
2023-03-31T02:54:33.863Z,54.60
2023-03-31T02:57:37.987Z,54.50
2023-03-31T03:00:07.877Z,54.60
2023-03-31T03:02:46.621Z,54.60
2023-03-31T03:05:45.645Z,54.80
2023-03-31T03:08:36.678Z,54.70
2023-03-31T03:11:07.947Z,54.60
2023-03-31T03:13:51.429Z,54.60
2023-03-31T03:16:41.396Z,54.20
2023-03-31T03:19:08.695Z,54.60
2023-03-31T03:21:35.645Z,54.70
2023-03-31T03:24:02.386Z,54.70
2023-03-31T03:26:29.320Z,54.60
2023-03-31T03:28:56.935Z,54.50
2023-03-31T03:31:26.197Z,54.60
2023-03-31T03:33:53.450Z,54.60
2023-03-31T03:36:20.560Z,54.70
2023-03-31T03:38:47.217Z,55.30
2023-03-31T03:41:13.946Z,54.60
2023-03-31T03:43:40.863Z,54.60
2023-03-31T03:46:07.708Z,55.10
2023-03-31T03:48:34.498Z,54.60
2023-03-31T03:51:01.819Z,54.60
2023-03-31T03:53:28.845Z,54.50
2023-03-31T03:55:55.564Z,54.70
2023-03-31T03:58:22.255Z,54.50
2023-03-31T04:00:49.197Z,54.40
2023-03-31T04:03:16.451Z,54.30
2023-03-31T04:05:43.303Z,54.30
2023-03-31T04:08:10.145Z,54.20
2023-03-31T04:10:37.979Z,54.20
2023-03-31T04:13:04.585Z,54.20
2023-03-31T04:15:31.226Z,54.20
2023-03-31T04:17:58.186Z,54.30
2023-03-31T04:20:27.758Z,54.20
2023-03-31T04:22:54.612Z,54.30
2023-03-31T04:25:22.648Z,54.60
2023-03-31T04:27:54.476Z,54.10
2023-03-31T04:30:30.740Z,54.70
2023-03-31T04:33:00.432Z,54.50
2023-03-31T04:35:49.288Z,53.80
2023-03-31T04:38:23.975Z,54.50
2023-03-31T04:40:52.079Z,54.50
2023-03-31T04:43:20.192Z,54.70
2023-03-31T04:45:47.141Z,54.50
2023-03-31T04:48:13.788Z,54.40
2023-03-31T04:50:40.573Z,54.30
2023-03-31T04:53:07.236Z,54.30
2023-03-31T04:55:34.635Z,54.30
2023-03-31T04:58:01.615Z,54.50
2023-03-31T05:00:28.960Z,54.60
2023-03-31T05:02:56.866Z,54.60
2023-03-31T05:05:23.621Z,55.10
2023-03-31T05:07:50.223Z,55.30
2023-03-31T05:10:16.963Z,55.30
2023-03-31T05:12:43.624Z,55.30
2023-03-31T05:15:10.657Z,55.30
2023-03-31T05:17:37.982Z,55.30
2023-03-31T05:20:06.794Z,55.30
2023-03-31T05:22:37.856Z,55.10
2023-03-31T05:25:06.916Z,55.20
2023-03-31T05:27:35.533Z,54.70
2023-03-31T05:30:03.955Z,55.40
2023-03-31T05:32:30.837Z,55.40
2023-03-31T05:34:57.689Z,55.40
2023-03-31T05:37:25.899Z,54.90
2023-03-31T05:39:53.143Z,55.30
2023-03-31T05:42:20.359Z,55.30
2023-03-31T05:44:47.057Z,55.40
2023-03-31T05:47:13.812Z,55.30
2023-03-31T05:49:40.532Z,55.30
2023-03-31T05:52:08.183Z,55.20
2023-03-31T05:54:35.157Z,55.40
2023-03-31T05:57:01.903Z,55.40
2023-03-31T05:59:28.602Z,55.50
2023-03-31T06:01:55.440Z,55.60
2023-03-31T06:04:22.225Z,55.50
2023-03-31T06:06:50.163Z,55.00
2023-03-31T06:09:17.838Z,55.60
2023-03-31T06:11:44.590Z,55.50
2023-03-31T06:14:11.636Z,55.50
2023-03-31T06:16:38.347Z,55.40
2023-03-31T06:19:05.222Z,55.50
2023-03-31T06:21:31.906Z,55.50
2023-03-31T06:24:00.226Z,55.40
2023-03-31T06:26:27.414Z,55.40
2023-03-31T06:28:54.212Z,55.30
2023-03-31T06:31:23.672Z,55.30
2023-03-31T06:33:50.827Z,55.90
2023-03-31T06:36:20.230Z,55.40
2023-03-31T06:38:47.015Z,55.40
2023-03-31T06:41:15.155Z,55.50
2023-03-31T06:43:42.178Z,55.40
2023-03-31T06:46:09.480Z,55.50
2023-03-31T06:48:36.948Z,55.50
2023-03-31T06:51:06.607Z,55.30
2023-03-31T06:53:33.822Z,55.30
2023-03-31T06:56:01.084Z,54.90
2023-03-31T06:58:30.609Z,55.40
2023-03-31T07:00:58.281Z,55.40
2023-03-31T07:03:25.567Z,55.30
2023-03-31T07:05:54.078Z,55.40
2023-03-31T07:08:21.612Z,55.30
2023-03-31T07:10:50.341Z,55.40
2023-03-31T07:13:18.084Z,55.30
2023-03-31T07:15:47.968Z,55.30
2023-03-31T07:18:15.792Z,55.20
2023-03-31T07:20:43.580Z,55.20
2023-03-31T07:23:10.832Z,55.10
2023-03-31T07:25:37.592Z,55.20
2023-03-31T07:28:05.910Z,55.10
2023-03-31T07:30:32.879Z,55.00
2023-03-31T07:32:59.812Z,54.90
2023-03-31T07:35:26.552Z,54.40
2023-03-31T07:37:53.841Z,54.90
2023-03-31T07:40:26.998Z,54.90
2023-03-31T07:42:54.168Z,54.90
2023-03-31T07:45:22.599Z,54.90
2023-03-31T07:47:49.569Z,54.90
2023-03-31T07:50:17.278Z,54.90
2023-03-31T07:52:46.917Z,54.90
2023-03-31T07:55:14.605Z,54.40
2023-03-31T07:57:42.065Z,54.90
2023-03-31T08:00:12.173Z,54.90
2023-03-31T08:02:39.983Z,54.90
2023-03-31T08:05:07.386Z,54.90
2023-03-31T08:07:39.602Z,54.90
2023-03-31T08:10:10.509Z,54.90
2023-03-31T08:12:37.122Z,54.90
2023-03-31T08:15:04.972Z,54.90
2023-03-31T08:17:31.697Z,54.90
2023-03-31T08:20:01.272Z,54.90
2023-03-31T08:22:30.464Z,54.90
2023-03-31T08:24:57.097Z,54.90
2023-03-31T08:27:24.107Z,54.90
2023-03-31T08:29:50.737Z,54.80
2023-03-31T08:32:17.395Z,54.80
2023-03-31T08:34:45.168Z,54.90
2023-03-31T08:37:11.796Z,54.90
2023-03-31T08:39:38.954Z,54.80
2023-03-31T08:42:16.580Z,54.80
2023-03-31T08:44:50.621Z,54.80
2023-03-31T08:47:21.351Z,54.70
2023-03-31T08:49:58.332Z,54.80
2023-03-31T08:52:31.568Z,54.80
2023-03-31T08:55:01.422Z,54.80
2023-03-31T08:57:45.448Z,54.70
2023-03-31T09:00:17.451Z,54.70
2023-03-31T09:02:55.501Z,54.70
2023-03-31T09:05:31.010Z,54.60
2023-03-31T09:08:13.408Z,54.60
2023-03-31T09:11:06.456Z,54.60
2023-03-31T09:13:55.687Z,54.50
2023-03-31T09:16:46.934Z,54.60
2023-03-31T09:19:24.162Z,54.60
2023-03-31T09:21:55.362Z,54.60
2023-03-31T09:24:32.851Z,54.60
2023-03-31T09:27:07.068Z,54.60
2023-03-31T09:29:51.616Z,54.60
2023-03-31T09:32:24.500Z,54.60
2023-03-31T09:34:58.661Z,54.60
2023-03-31T09:37:29.978Z,54.60
2023-03-31T09:40:07.354Z,54.50
2023-03-31T09:42:35.648Z,54.50
2023-03-31T09:45:03.064Z,54.50
2023-03-31T09:47:38.967Z,54.50
2023-03-31T09:50:07.639Z,54.50
2023-03-31T09:52:51.801Z,54.50
2023-03-31T09:55:39.614Z,55.10
2023-03-31T09:58:08.397Z,54.50
2023-03-31T10:00:36.359Z,54.40
2023-03-31T10:03:07.542Z,54.40
2023-03-31T10:05:58.853Z,54.40
2023-03-31T10:08:42.231Z,54.40
2023-03-31T10:11:12.020Z,54.30
2023-03-31T10:13:43.266Z,54.30
2023-03-31T10:16:14.533Z,54.40
2023-03-31T10:18:43.597Z,54.30
2023-03-31T10:21:23.569Z,54.30
2023-03-31T10:23:51.368Z,54.30
2023-03-31T10:26:25.768Z,54.40
2023-03-31T10:28:55.100Z,54.40
2023-03-31T10:31:27.621Z,54.80
2023-03-31T10:33:55.960Z,54.40
2023-03-31T10:36:26.440Z,54.40
2023-03-31T10:38:54.064Z,54.30
2023-03-31T10:41:30.974Z,54.40
2023-03-31T10:43:59.758Z,54.40
2023-03-31T10:46:42.211Z,54.00
2023-03-31T10:49:21.129Z,54.40
2023-03-31T10:51:57.469Z,54.40
2023-03-31T10:54:24.499Z,54.50
2023-03-31T10:56:54.706Z,54.40
2023-03-31T10:59:52.306Z,55.00
2023-03-31T11:02:42.785Z,54.30
2023-03-31T11:05:36.112Z,54.40
2023-03-31T11:08:22.028Z,54.40
2023-03-31T11:11:16.221Z,54.50
2023-03-31T11:14:04.686Z,54.40
2023-03-31T11:16:50.109Z,54.60
2023-03-31T11:19:56.129Z,54.60
2023-03-31T11:22:40.911Z,55.40
2023-03-31T11:25:32.204Z,54.70
2023-03-31T11:28:23.059Z,54.70
2023-03-31T11:30:58.397Z,54.80
2023-03-31T11:33:24.977Z,54.90
2023-03-31T11:36:16.891Z,55.00
2023-03-31T11:39:09.498Z,55.00
2023-03-31T11:41:49.221Z,55.00
2023-03-31T11:44:18.212Z,55.10
2023-03-31T11:47:02.235Z,55.20
2023-03-31T11:49:38.804Z,55.10
2023-03-31T11:52:17.558Z,55.50
2023-03-31T11:54:55.564Z,55.00
2023-03-31T11:57:29.943Z,55.10
2023-03-31T12:00:07.244Z,55.20
2023-03-31T12:02:59.531Z,55.20
2023-03-31T12:05:28.390Z,55.20
2023-03-31T12:08:12.091Z,55.30
2023-03-31T12:10:45.285Z,55.30
2023-03-31T12:13:24.913Z,55.30
2023-03-31T12:16:13.019Z,55.30
2023-03-31T12:18:54.415Z,55.30
2023-03-31T12:21:23.514Z,55.30
2023-03-31T12:23:50.406Z,55.40
2023-03-31T12:26:36.752Z,55.30
2023-03-31T12:29:26.888Z,55.50
2023-03-31T12:31:59.465Z,55.40
2023-03-31T12:34:28.155Z,55.60
2023-03-31T12:37:23.361Z,55.60
2023-03-31T12:40:05.146Z,56.10
2023-03-31T12:42:55.713Z,55.60
2023-03-31T12:45:31.155Z,55.70
2023-03-31T12:48:32.222Z,55.60
2023-03-31T12:51:38.310Z,55.60
2023-03-31T12:54:42.076Z,55.70
2023-03-31T12:57:08.776Z,55.60
2023-03-31T12:59:41.390Z,55.80
2023-03-31T13:02:16.821Z,55.50
2023-03-31T13:04:44.391Z,55.80
2023-03-31T13:07:38.532Z,55.40
2023-03-31T13:10:14.311Z,55.80
2023-03-31T13:12:41.376Z,55.80
2023-03-31T13:15:14.351Z,55.10
2023-03-31T13:17:42.062Z,55.60
2023-03-31T13:20:32.172Z,55.70
2023-03-31T13:23:22.050Z,55.40
2023-03-31T13:25:52.278Z,55.50
2023-03-31T13:28:21.760Z,55.60
2023-03-31T13:31:10.264Z,55.80
2023-03-31T13:33:58.143Z,55.70
2023-03-31T13:36:34.289Z,55.80
2023-03-31T13:39:45.870Z,55.90
2023-03-31T13:42:30.654Z,55.80
2023-03-31T13:45:33.464Z,55.40
2023-03-31T13:48:22.918Z,55.40
2023-03-31T13:51:12.629Z,55.40
2023-03-31T13:54:03.269Z,55.40
2023-03-31T13:56:59.935Z,55.40
2023-03-31T13:59:47.143Z,55.50
2023-03-31T14:02:44.707Z,55.40
2023-03-31T14:05:36.146Z,55.40
2023-03-31T14:08:11.934Z,55.40
2023-03-31T14:10:42.081Z,55.40
2023-03-31T14:13:19.115Z,55.40
2023-03-31T14:15:55.951Z,55.20
2023-03-31T14:18:33.996Z,55.50
2023-03-31T14:21:13.419Z,55.40
2023-03-31T14:24:18.335Z,55.40
2023-03-31T14:26:58.408Z,55.40
2023-03-31T14:29:34.609Z,55.70
2023-03-31T14:32:26.130Z,55.80
2023-03-31T14:35:23.705Z,55.80
2023-03-31T14:37:51.055Z,56.10
2023-03-31T14:40:18.830Z,55.60
2023-03-31T14:42:49.595Z,55.90
2023-03-31T14:45:25.766Z,55.90
2023-03-31T14:47:57.839Z,55.90
2023-03-31T14:50:45.914Z,56.00
2023-03-31T14:53:24.028Z,55.70
2023-03-31T14:55:58.675Z,55.80
2023-03-31T14:58:34.859Z,55.60
2023-03-31T15:01:04.746Z,55.80
2023-03-31T15:03:33.873Z,56.30
2023-03-31T15:06:02.949Z,55.80
2023-03-31T15:08:31.783Z,55.60
2023-03-31T15:11:11.872Z,55.70
2023-03-31T15:13:52.949Z,55.90
2023-03-31T15:16:42.062Z,55.60
2023-03-31T15:19:22.625Z,55.80
2023-03-31T15:22:02.136Z,55.70
2023-03-31T15:24:30.150Z,55.90
2023-03-31T15:27:08.992Z,56.00
2023-03-31T15:29:51.939Z,56.10
2023-03-31T15:32:27.600Z,56.10
2023-03-31T15:34:55.564Z,55.90
2023-03-31T15:37:27.616Z,55.80
2023-03-31T15:40:00.386Z,55.90
2023-03-31T15:42:28.335Z,55.90
2023-03-31T15:44:58.036Z,56.00
2023-03-31T15:47:32.040Z,55.90
2023-03-31T15:50:13.087Z,56.10
2023-03-31T15:52:47.981Z,56.10
2023-03-31T15:55:24.905Z,56.00
2023-03-31T15:57:52.826Z,55.40
2023-03-31T16:00:34.415Z,55.90
2023-03-31T16:03:03.843Z,55.90
2023-03-31T16:05:55.328Z,55.70
2023-03-31T16:11:55.428Z,55.60
2023-03-31T16:14:38.782Z,55.60
2023-03-31T16:17:11.200Z,55.60
2023-03-31T16:19:48.867Z,55.50
2023-03-31T16:22:24.247Z,55.50
2023-03-31T16:24:51.675Z,55.20
2023-03-31T16:27:18.697Z,55.70
2023-03-31T16:29:45.672Z,55.80
2023-03-31T16:32:15.307Z,55.90
2023-03-31T16:35:00.194Z,55.80
2023-03-31T16:37:27.556Z,55.50
2023-03-31T16:39:54.636Z,55.70
2023-03-31T16:42:21.385Z,55.70
2023-03-31T16:44:59.974Z,55.70
2023-03-31T16:47:35.803Z,55.60
2023-03-31T16:50:07.016Z,55.60
2023-03-31T16:52:33.718Z,55.70
2023-03-31T16:55:01.255Z,55.60
2023-03-31T16:57:28.107Z,55.50
2023-03-31T16:59:57.347Z,55.40
2023-03-31T17:02:25.344Z,55.40
2023-03-31T17:04:54.202Z,55.40
2023-03-31T17:07:23.283Z,55.40
2023-03-31T17:09:49.878Z,56.20
2023-03-31T17:12:16.598Z,55.70
2023-03-31T17:14:43.301Z,55.80
2023-03-31T17:17:10.082Z,55.90
2023-03-31T17:19:36.871Z,55.80
2023-03-31T17:22:03.797Z,55.90
2023-03-31T17:24:30.385Z,56.10
2023-03-31T17:26:57.593Z,56.10
2023-03-31T17:29:24.724Z,55.90
2023-03-31T17:31:51.452Z,55.90
2023-03-31T17:34:18.241Z,55.90
2023-03-31T17:36:44.945Z,55.90
2023-03-31T17:39:11.948Z,55.90
2023-03-31T17:41:38.643Z,56.00
2023-03-31T17:44:07.650Z,55.90
2023-03-31T17:46:34.790Z,55.90
2023-03-31T17:49:01.500Z,55.80
2023-03-31T17:51:28.715Z,55.80
2023-03-31T17:53:56.152Z,56.40
2023-03-31T17:56:22.801Z,55.80
2023-03-31T17:58:49.416Z,55.80
2023-03-31T18:01:16.218Z,55.80
2023-03-31T18:03:44.882Z,55.80
2023-03-31T18:06:13.997Z,55.70
2023-03-31T18:08:41.866Z,55.80
2023-03-31T18:11:09.321Z,56.20
2023-03-31T18:13:37.009Z,56.30
2023-03-31T18:16:05.082Z,56.10
2023-03-31T18:18:32.502Z,56.00
2023-03-31T18:21:04.108Z,56.00
2023-03-31T18:23:31.938Z,56.00
2023-03-31T18:25:58.606Z,56.10
2023-03-31T18:28:25.385Z,56.00
2023-03-31T18:30:53.167Z,56.00
2023-03-31T18:33:20.109Z,55.90
2023-03-31T18:35:46.909Z,55.90
2023-03-31T18:38:13.906Z,56.00
2023-03-31T18:40:48.555Z,55.90
2023-03-31T18:43:15.486Z,55.90
2023-03-31T18:45:42.092Z,55.30
2023-03-31T18:48:08.922Z,55.80
2023-03-31T18:50:35.886Z,55.80
2023-03-31T18:53:03.421Z,55.80
2023-03-31T18:55:30.260Z,55.80
2023-03-31T18:57:57.882Z,55.80
2023-03-31T19:00:24.537Z,55.70
2023-03-31T19:02:51.863Z,55.80
2023-03-31T19:05:18.936Z,54.70
2023-03-31T19:07:45.763Z,55.70
2023-03-31T19:10:12.460Z,55.80
2023-03-31T19:12:39.211Z,55.60
2023-03-31T19:15:07.002Z,55.70
2023-03-31T19:17:33.642Z,55.70
2023-03-31T19:20:00.552Z,56.30
2023-03-31T19:22:27.654Z,55.60
2023-03-31T19:24:54.322Z,55.60
2023-03-31T19:27:20.975Z,55.70
2023-03-31T19:29:47.585Z,55.60
2023-03-31T19:32:14.353Z,55.70
2023-03-31T19:34:44.895Z,55.50
2023-03-31T19:37:11.926Z,55.60
2023-03-31T19:39:38.675Z,55.60
2023-03-31T19:42:05.598Z,55.70
2023-03-31T19:44:32.194Z,55.60
2023-03-31T19:46:59.153Z,55.70
2023-03-31T19:49:26.705Z,55.90
2023-03-31T19:51:53.426Z,55.70
2023-03-31T19:54:20.361Z,55.90
2023-03-31T19:56:47.505Z,56.00
2023-03-31T19:59:14.189Z,56.00
2023-03-31T20:01:41.240Z,55.80
2023-03-31T20:04:08.364Z,55.90
2023-03-31T20:06:35.122Z,56.00
2023-03-31T20:09:03.593Z,56.00
2023-03-31T20:11:31.979Z,55.90
2023-03-31T20:13:59.324Z,56.00
2023-03-31T20:16:28.034Z,55.90
2023-03-31T20:19:04.386Z,55.90
2023-03-31T20:21:36.917Z,55.80
2023-03-31T20:24:04.386Z,55.80
2023-03-31T20:26:32.848Z,55.80
2023-03-31T20:29:02.437Z,55.80
2023-03-31T20:31:32.375Z,55.60
2023-03-31T20:33:59.099Z,55.60
2023-03-31T20:36:31.436Z,55.60
2023-03-31T20:38:59.597Z,55.60
2023-03-31T20:41:28.054Z,55.60
2023-03-31T20:43:55.915Z,55.50
2023-03-31T20:46:23.347Z,55.00
2023-03-31T20:48:53.314Z,55.50
2023-03-31T20:51:22.586Z,55.50
2023-03-31T20:53:52.663Z,55.50
2023-03-31T20:56:23.092Z,55.50
2023-03-31T20:58:50.818Z,55.50
2023-03-31T21:01:18.247Z,55.50
2023-03-31T21:03:45.695Z,55.60
2023-03-31T21:06:14.629Z,55.50
2023-03-31T21:08:42.759Z,55.50
2023-03-31T21:11:09.838Z,55.40
2023-03-31T21:13:37.015Z,55.60
2023-03-31T21:16:05.056Z,55.50
2023-03-31T21:18:33.233Z,55.50
2023-03-31T21:21:05.833Z,54.90
2023-03-31T21:23:32.670Z,55.50
2023-03-31T21:26:02.054Z,55.50
2023-03-31T21:28:31.445Z,55.50
2023-03-31T21:31:01.666Z,55.40
2023-03-31T21:33:29.550Z,55.50
2023-03-31T21:35:56.452Z,56.00
2023-03-31T21:38:23.275Z,55.50
2023-03-31T21:40:52.238Z,55.40
2023-03-31T21:43:23.695Z,55.40
2023-03-31T21:45:53.240Z,54.90
2023-03-31T21:48:25.222Z,55.40
2023-03-31T21:50:54.498Z,55.40
2023-03-31T21:53:22.662Z,55.40
2023-03-31T21:55:55.199Z,54.90
2023-03-31T21:58:27.402Z,55.40
2023-03-31T22:00:58.489Z,55.40
2023-03-31T22:03:28.477Z,55.40
2023-03-31T22:05:59.121Z,54.90
2023-03-31T22:08:27.162Z,55.40
2023-03-31T22:10:54.885Z,55.40
2023-03-31T22:13:22.512Z,55.40
2023-03-31T22:15:49.549Z,55.30
2023-03-31T22:18:16.990Z,55.30
2023-03-31T22:20:43.894Z,55.40
2023-03-31T22:23:10.708Z,55.30
2023-03-31T22:25:37.365Z,54.80
2023-03-31T22:28:06.628Z,55.30
2023-03-31T22:30:33.946Z,55.30
2023-03-31T22:33:00.968Z,55.30
2023-03-31T22:35:27.633Z,55.30
2023-03-31T22:37:54.374Z,55.20
2023-03-31T22:40:21.041Z,55.30
2023-03-31T22:42:47.738Z,55.30
2023-03-31T22:45:14.366Z,55.20
2023-03-31T22:47:42.232Z,55.20
2023-03-31T22:50:10.350Z,55.20
2023-03-31T22:52:37.311Z,55.20
2023-03-31T22:55:04.555Z,55.60
2023-03-31T22:57:32.023Z,55.20
2023-03-31T22:59:58.839Z,55.20
2023-03-31T23:02:25.504Z,54.60
2023-03-31T23:04:52.177Z,55.20
2023-03-31T23:07:21.661Z,55.20
2023-03-31T23:09:48.464Z,55.50
2023-03-31T23:12:15.328Z,55.20
2023-03-31T23:14:41.945Z,55.20
2023-03-31T23:17:08.553Z,55.20
2023-03-31T23:19:35.390Z,55.20
2023-03-31T23:22:02.515Z,55.20
2023-03-31T23:24:29.913Z,55.20
2023-03-31T23:26:56.584Z,55.20
2023-03-31T23:29:23.633Z,55.20
2023-03-31T23:31:50.439Z,55.10
2023-03-31T23:34:17.222Z,55.20
2023-03-31T23:36:43.857Z,54.60
2023-03-31T23:39:10.762Z,55.10
2023-03-31T23:41:37.452Z,55.10
2023-03-31T23:44:04.590Z,55.20
2023-03-31T23:46:31.741Z,55.20
2023-03-31T23:48:58.918Z,55.10
2023-03-31T23:51:25.625Z,55.20
2023-03-31T23:53:52.420Z,55.10
2023-03-31T23:56:19.202Z,54.70
2023-03-31T23:58:45.961Z,55.10
